Time;durP1;ratioP1;P1;durP2;ratioP2;P2;SDS_P1;SDS_P2;PMS_P1;PMS_P2;Temp;Humidity;BMP_temperature;BMP_pressure;BME280_temperature;BME280_humidity;BME280_pressure;Samples;Min_cycle;Max_cycle;Signal;HPM_P1;HPM_P2
2022/01/03 00:00:25;;;;;;;5.93;1.33;;;8.80;99.90;;;;;;5116201;28;20465;-70
2022/01/03 00:02:56;;;;;;;5.40;1.08;;;8.80;99.90;;;;;;5115797;28;20036;-70
2022/01/03 00:05:22;;;;;;;8.57;1.63;;;8.80;99.90;;;;;;5115519;28;20043;-70
2022/01/03 00:07:48;;;;;;;8.85;1.90;;;8.90;99.90;;;;;;5115202;28;20032;-69
2022/01/03 00:10:17;;;;;;;6.60;1.95;;;9.00;99.90;;;;;;5115810;28;20052;-69
2022/01/03 00:12:43;;;;;;;8.07;2.67;;;9.00;99.90;;;;;;5115415;28;20039;-70
2022/01/03 00:15:15;;;;;;;9.23;2.03;;;8.90;99.90;;;;;;5115913;27;20040;-70
2022/01/03 00:17:42;;;;;;;12.52;2.92;;;8.90;99.90;;;;;;5113732;28;20447;-69
2022/01/03 00:20:09;;;;;;;14.75;3.45;;;9.00;99.90;;;;;;5115659;28;20071;-69
2022/01/03 00:23:05;;;;;;;4.95;2.10;;;9.00;99.90;;;;;;5115005;28;20035;-69
2022/01/03 00:25:36;;;;;;;17.35;3.28;;;9.00;99.90;;;;;;5100766;28;20467;-70
2022/01/03 00:28:14;;;;;;;13.65;2.85;;;9.10;99.90;;;;;;5114888;28;20043;-69
2022/01/03 00:30:41;;;;;;;11.57;3.38;;;9.10;99.90;;;;;;5113585;28;20514;-69
2022/01/03 00:33:07;;;;;;;13.63;2.90;;;9.20;99.90;;;;;;5113637;28;20517;-69
2022/01/03 00:35:36;;;;;;;19.30;3.53;;;9.30;99.90;;;;;;5114516;28;20067;-70
2022/01/03 00:38:02;;;;;;;12.20;2.70;;;9.30;99.90;;;;;;5113322;28;20556;-70
2022/01/03 00:40:29;;;;;;;11.30;3.13;;;9.30;99.90;;;;;;5114914;28;20044;-69
2022/01/03 00:42:55;;;;;;;15.18;4.18;;;9.30;99.90;;;;;;5113598;28;20085;-69
2022/01/03 00:45:20;;;;;;;18.38;3.22;;;9.40;99.90;;;;;;5113850;28;20035;-69
2022/01/03 00:47:47;;;;;;;8.30;2.80;;;9.50;99.90;;;;;;5114225;28;20035;-70
2022/01/03 00:50:18;;;;;;;16.30;4.18;;;9.50;99.90;;;;;;5113306;28;20043;-70
2022/01/03 00:52:47;;;;;;;18.25;3.10;;;9.50;99.90;;;;;;5114335;28;20039;-70
2022/01/03 00:55:13;;;;;;;21.05;4.20;;;9.50;99.90;;;;;;5113354;28;20043;-70
2022/01/03 00:58:05;;;;;;;16.17;4.30;;;9.50;99.90;;;;;;5114013;28;20070;-69
2022/01/03 01:00:36;;;;;;;18.67;5.18;;;9.50;99.90;;;;;;5115278;28;20133;-70
2022/01/03 01:03:34;;;;;;;21.52;4.40;;;9.60;99.90;;;;;;5113695;28;20043;-70
2022/01/03 01:06:03;;;;;;;20.70;4.50;;;9.60;99.90;;;;;;5092758;28;20051;-70
2022/01/03 01:08:33;;;;;;;19.00;3.67;;;9.50;99.90;;;;;;5114313;28;20079;-69
2022/01/03 01:11:03;;;;;;;18.67;4.35;;;9.50;99.90;;;;;;5117246;28;20051;-69
2022/01/03 01:13:28;;;;;;;16.88;3.55;;;9.60;99.90;;;;;;5114138;28;20096;-70
2022/01/03 01:15:54;;;;;;;19.00;4.57;;;9.60;99.90;;;;;;5113754;28;20043;-71
2022/01/03 01:18:22;;;;;;;16.73;3.53;;;9.70;99.90;;;;;;5114113;27;20032;-70
2022/01/03 01:20:48;;;;;;;14.50;3.58;;;9.60;99.90;;;;;;5113194;28;20044;-70
2022/01/03 01:23:14;;;;;;;16.27;3.40;;;9.60;99.90;;;;;;5113769;28;20043;-70
2022/01/03 01:28:11;;;;;;;20.27;3.65;;;9.60;99.90;;;;;;5114031;28;20182;-70
2022/01/03 01:30:38;;;;;;;19.50;3.78;;;9.60;99.90;;;;;;5113271;28;20039;-70
2022/01/03 01:33:24;;;;;;;17.05;3.30;;;9.60;99.90;;;;;;5113938;28;20042;-70
2022/01/03 01:35:55;;;;;;;17.85;4.13;;;9.60;99.90;;;;;;5114076;28;20468;-70
2022/01/03 01:38:28;;;;;;;22.38;5.00;;;9.50;99.90;;;;;;5113712;28;20126;-70
2022/01/03 01:40:56;;;;;;;22.08;4.78;;;9.70;99.90;;;;;;5112583;28;20036;-71
2022/01/03 01:43:39;;;;;;;21.95;3.63;;;9.60;99.90;;;;;;5113756;28;20209;-70
2022/01/03 01:46:12;;;;;;;21.00;3.38;;;9.70;99.90;;;;;;5113646;28;20460;-70
2022/01/03 01:48:42;;;;;;;16.17;3.35;;;9.70;99.90;;;;;;5113960;28;20044;-70
2022/01/03 01:51:10;;;;;;;23.35;4.32;;;9.70;99.90;;;;;;5113199;28;20527;-70
2022/01/03 01:53:45;;;;;;;20.90;3.28;;;9.70;99.90;;;;;;5113831;28;20138;-70
2022/01/03 01:56:26;;;;;;;20.40;4.25;;;9.70;99.90;;;;;;5113462;28;20043;-71
2022/01/03 01:59:12;;;;;;;20.52;3.97;;;9.70;99.90;;;;;;5113751;28;20043;-70
2022/01/03 02:01:55;;;;;;;28.00;4.15;;;9.70;99.90;;;;;;5113715;28;20066;-70
2022/01/03 02:04:31;;;;;;;;;;;9.70;99.90;;;;;;5113167;28;20402;-70
2022/01/03 02:07:06;;;;;;;16.63;4.38;;;9.60;99.90;;;;;;5113097;28;20368;-70
2022/01/03 02:09:43;;;;;;;16.42;4.97;;;9.60;99.90;;;;;;5112912;28;20162;-70
2022/01/03 02:12:16;;;;;;;25.30;4.95;;;9.70;99.90;;;;;;5113894;28;20084;-71
2022/01/03 02:14:43;;;;;;;21.33;3.65;;;9.70;99.90;;;;;;5113345;28;20039;-70
2022/01/03 02:17:09;;;;;;;20.67;3.40;;;9.90;99.90;;;;;;5113387;28;20032;-70
2022/01/03 02:19:38;;;;;;;23.98;4.88;;;9.80;99.90;;;;;;5112182;28;20051;-70
2022/01/03 02:22:04;;;;;;;20.50;4.10;;;9.80;99.90;;;;;;5112778;28;20035;-70
2022/01/03 02:24:30;;;;;;;26.75;4.13;;;9.80;99.90;;;;;;5113629;28;20046;-70
2022/01/03 02:26:55;;;;;;;25.38;4.07;;;9.70;99.90;;;;;;5113169;28;20031;-70
2022/01/03 02:29:21;;;;;;;26.25;4.97;;;9.70;99.90;;;;;;5112687;28;20047;-70
2022/01/03 02:31:47;;;;;;;17.27;4.32;;;9.80;99.90;;;;;;5113358;28;20595;-70
2022/01/03 02:34:13;;;;;;;22.83;3.60;;;9.80;99.90;;;;;;5113939;28;20468;-70
2022/01/03 02:36:43;;;;;;;21.63;4.07;;;9.80;99.90;;;;;;5117000;28;20449;-70
2022/01/03 02:39:09;;;;;;;22.60;4.60;;;9.80;99.90;;;;;;5117285;28;20110;-70
2022/01/03 02:41:34;;;;;;;29.58;5.03;;;9.80;99.90;;;;;;5117513;28;20093;-70
2022/01/03 02:44:00;;;;;;;24.48;4.07;;;9.70;99.90;;;;;;5117260;28;20039;-70
2022/01/03 02:46:25;;;;;;;18.17;3.60;;;9.70;99.90;;;;;;5115456;28;20048;-70
2022/01/03 02:48:51;;;;;;;30.70;4.97;;;9.80;99.90;;;;;;5116937;28;20036;-70
2022/01/03 02:51:17;;;;;;;23.80;4.63;;;9.80;99.90;;;;;;5117505;28;20039;-70
2022/01/03 02:53:43;;;;;;;23.10;4.55;;;9.80;99.90;;;;;;5116856;28;20043;-70
2022/01/03 02:56:08;;;;;;;18.90;4.25;;;9.70;99.90;;;;;;5115534;28;20031;-70
2022/01/03 02:58:34;;;;;;;20.73;4.65;;;9.70;99.90;;;;;;5115831;28;20468;-70
2022/01/03 03:01:00;;;;;;;21.67;4.65;;;9.80;99.90;;;;;;5115959;28;20039;-70
2022/01/03 03:03:25;;;;;;;16.55;5.22;;;9.70;99.90;;;;;;5116641;27;20055;-70
2022/01/03 03:05:51;;;;;;;24.30;4.30;;;9.70;99.90;;;;;;5116335;28;20046;-70
2022/01/03 03:08:17;;;;;;;22.65;5.57;;;9.70;99.90;;;;;;5115508;28;20043;-70
2022/01/03 03:10:44;;;;;;;21.98;4.10;;;9.80;99.90;;;;;;5116802;28;20114;-70
2022/01/03 03:13:09;;;;;;;24.60;5.68;;;9.70;99.90;;;;;;5115529;28;20482;-70
2022/01/03 03:15:35;;;;;;;21.85;4.93;;;9.70;99.90;;;;;;5116699;28;20130;-70
2022/01/03 03:18:02;;;;;;;20.67;4.85;;;9.70;99.90;;;;;;5116633;28;20032;-70
2022/01/03 03:20:30;;;;;;;21.70;4.70;;;9.70;99.90;;;;;;5116492;28;20036;-70
2022/01/03 03:22:57;;;;;;;19.98;5.07;;;9.70;99.90;;;;;;5115050;28;20039;-70
2022/01/03 03:25:30;;;;;;;24.23;5.43;;;9.70;99.90;;;;;;5116438;28;20502;-70
2022/01/03 03:28:07;;;;;;;20.48;4.35;;;9.70;99.90;;;;;;5116454;28;20077;-70
2022/01/03 03:30:39;;;;;;;27.40;4.63;;;9.60;99.90;;;;;;5116290;27;20039;-70
2022/01/03 03:33:13;;;;;;;22.45;4.22;;;9.60;99.90;;;;;;5115992;28;20505;-70
2022/01/03 03:35:39;;;;;;;18.10;3.92;;;9.60;99.90;;;;;;5114671;28;20096;-70
2022/01/03 03:38:06;;;;;;;34.15;6.55;;;9.60;99.90;;;;;;5115840;28;20480;-70
2022/01/03 03:40:32;;;;;;;24.75;5.63;;;9.60;99.90;;;;;;5116377;28;20042;-70
2022/01/03 03:42:58;;;;;;;24.15;3.88;;;9.50;99.90;;;;;;5116526;28;20028;-70
2022/01/03 03:45:24;;;;;;;27.33;4.82;;;9.50;99.90;;;;;;5115374;28;20035;-71
2022/01/03 03:47:51;;;;;;;25.35;4.30;;;9.50;99.90;;;;;;5114502;28;20067;-69
2022/01/03 03:50:18;;;;;;;24.58;4.47;;;9.50;99.90;;;;;;5115955;28;20044;-69
2022/01/03 03:52:44;;;;;;;21.63;4.35;;;9.50;99.90;;;;;;5114674;28;20051;-70
2022/01/03 03:55:11;;;;;;;17.98;4.30;;;9.50;99.90;;;;;;5116202;28;20040;-70
2022/01/03 03:57:37;;;;;;;26.33;6.07;;;9.50;99.90;;;;;;5114371;28;20035;-70
2022/01/03 04:00:12;;;;;;;20.08;4.32;;;9.40;99.90;;;;;;5114599;28;20047;-69
2022/01/03 04:02:37;;;;;;;21.92;4.45;;;9.40;99.90;;;;;;5115688;28;20046;-70
2022/01/03 04:05:04;;;;;;;25.75;4.60;;;9.40;99.90;;;;;;5114697;28;20131;-70
2022/01/03 04:07:30;;;;;;;21.48;4.18;;;9.40;99.90;;;;;;5113894;28;20047;-70
2022/01/03 04:09:55;;;;;;;16.00;4.18;;;9.40;99.90;;;;;;5116337;28;20050;-70
2022/01/03 04:12:21;;;;;;;18.90;3.97;;;9.40;99.90;;;;;;5115332;28;20038;-70
2022/01/03 04:14:47;;;;;;;27.20;5.22;;;9.40;99.90;;;;;;5114765;28;20544;-70
2022/01/03 04:17:12;;;;;;;28.92;5.47;;;9.40;99.90;;;;;;5113650;28;20039;-70
2022/01/03 04:19:38;;;;;;;17.85;4.13;;;9.40;99.90;;;;;;5114250;28;20074;-70
2022/01/03 04:22:05;;;;;;;18.40;4.30;;;9.30;99.90;;;;;;5115737;28;20065;-70
2022/01/03 04:24:30;;;;;;;35.60;5.00;;;9.30;99.90;;;;;;5115705;27;20035;-70
2022/01/03 04:26:57;;;;;;;19.48;4.47;;;9.30;99.90;;;;;;5114718;28;20434;-70
2022/01/03 04:29:22;;;;;;;24.67;4.32;;;9.30;99.90;;;;;;5115265;28;20079;-70
2022/01/03 04:31:48;;;;;;;32.90;6.85;;;9.30;99.90;;;;;;5115049;28;20078;-70
2022/01/03 04:34:14;;;;;;;23.00;4.93;;;9.40;99.90;;;;;;5114002;28;20044;-70
2022/01/03 04:36:40;;;;;;;24.83;5.60;;;9.40;99.90;;;;;;5114638;28;20079;-70
2022/01/03 04:39:06;;;;;;;20.55;5.32;;;9.30;99.90;;;;;;5115374;28;20540;-70
2022/01/03 04:41:32;;;;;;;28.48;5.32;;;9.40;99.90;;;;;;5113656;28;20502;-70
2022/01/03 04:43:58;;;;;;;26.55;5.50;;;9.40;99.90;;;;;;5115003;28;20036;-70
2022/01/03 04:46:23;;;;;;;22.30;5.22;;;9.40;99.90;;;;;;5113295;28;20044;-70
2022/01/03 04:48:49;;;;;;;22.45;4.28;;;9.50;99.90;;;;;;5113891;28;20042;-70
2022/01/03 04:51:15;;;;;;;22.73;5.43;;;9.40;99.90;;;;;;5115200;28;20504;-70
2022/01/03 04:53:41;;;;;;;23.58;4.57;;;9.30;99.90;;;;;;5114475;28;20044;-70
2022/01/03 04:56:11;;;;;;;27.02;5.05;;;9.30;99.90;;;;;;5114268;28;20101;-70
2022/01/03 04:58:38;;;;;;;28.58;6.00;;;9.50;99.90;;;;;;5114070;28;20046;-70
2022/01/03 05:01:04;;;;;;;26.33;4.47;;;9.40;99.90;;;;;;5114844;28;20042;-69
2022/01/03 05:03:30;;;;;;;32.92;5.70;;;9.40;99.90;;;;;;5114825;28;20119;-70
2022/01/03 05:05:56;;;;;;;29.83;5.85;;;9.40;99.90;;;;;;5113033;28;20094;-70
2022/01/03 05:08:22;;;;;;;23.92;5.78;;;9.50;99.90;;;;;;5114244;28;20100;-70
2022/01/03 05:10:47;;;;;;;28.55;5.40;;;9.40;99.90;;;;;;5114211;28;20071;-70
2022/01/03 05:13:13;;;;;;;27.63;5.10;;;9.40;99.90;;;;;;5114401;28;20065;-70
2022/01/03 05:15:38;;;;;;;28.73;6.07;;;9.50;99.90;;;;;;5112875;28;20082;-70
2022/01/03 05:18:04;;;;;;;29.63;6.30;;;9.40;99.90;;;;;;5114149;28;20028;-69
2022/01/03 05:20:30;;;;;;;31.00;6.38;;;9.50;99.90;;;;;;5114597;28;20088;-70
2022/01/03 05:22:55;;;;;;;29.85;5.60;;;9.50;99.90;;;;;;5114341;28;20476;-69
2022/01/03 05:25:21;;;;;;;22.77;6.35;;;9.40;99.90;;;;;;5114649;28;20031;-69
2022/01/03 05:27:48;;;;;;;26.35;5.95;;;9.40;99.90;;;;;;5112586;28;20399;-69
2022/01/03 05:30:13;;;;;;;32.38;6.00;;;9.30;99.90;;;;;;5113985;28;20040;-69
2022/01/03 05:32:39;;;;;;;23.48;4.60;;;9.30;99.90;;;;;;5114035;28;20118;-69
2022/01/03 05:35:05;;;;;;;24.42;6.18;;;9.40;99.90;;;;;;5114317;28;20044;-69
2022/01/03 05:37:31;;;;;;;26.02;6.22;;;9.30;99.90;;;;;;5113806;28;20063;-70
2022/01/03 05:39:56;;;;;;;27.17;5.93;;;9.30;99.90;;;;;;5114108;28;20085;-70
2022/01/03 05:42:22;;;;;;;29.05;5.22;;;9.30;99.90;;;;;;5114323;28;20414;-70
2022/01/03 05:44:48;;;;;;;36.13;7.20;;;9.30;99.90;;;;;;5114124;28;20035;-71
2022/01/03 05:47:13;;;;;;;34.53;6.80;;;9.30;99.90;;;;;;5113629;28;20066;-70
2022/01/03 05:49:39;;;;;;;33.60;6.40;;;9.30;99.90;;;;;;5114469;28;20085;-70
2022/01/03 05:52:05;;;;;;;37.72;6.57;;;9.30;99.90;;;;;;5114324;28;20498;-71
2022/01/03 05:54:30;;;;;;;29.02;5.53;;;9.30;99.90;;;;;;5113551;28;20044;-70
2022/01/03 05:56:56;;;;;;;31.88;5.90;;;9.30;99.90;;;;;;5113291;28;20070;-71
2022/01/03 05:59:21;;;;;;;30.65;6.63;;;9.20;99.90;;;;;;5112698;28;20046;-70
2022/01/03 06:01:47;;;;;;;22.30;5.53;;;9.30;99.90;;;;;;5114077;28;20046;-70
2022/01/03 06:06:53;;;;;;;35.28;5.93;;;9.20;99.90;;;;;;5112282;28;20399;-71
2022/01/03 06:09:20;;;;;;;28.30;6.60;;;9.20;99.90;;;;;;5116266;28;20513;-70
2022/01/03 06:11:46;;;;;;;25.33;4.93;;;9.30;99.90;;;;;;5117804;28;20071;-71
2022/01/03 06:14:13;;;;;;;35.85;6.32;;;9.30;99.90;;;;;;5117920;28;20044;-70
2022/01/03 06:16:39;;;;;;;36.83;6.55;;;9.20;99.90;;;;;;5117397;28;20054;-70
2022/01/03 06:19:05;;;;;;;23.77;5.82;;;9.30;99.90;;;;;;5117778;28;20479;-70
2022/01/03 06:21:31;;;;;;;31.60;5.35;;;9.30;99.90;;;;;;5116438;28;20044;-70
2022/01/03 06:23:57;;;;;;;38.30;6.90;;;9.30;99.90;;;;;;5117563;28;20040;-70
2022/01/03 06:26:22;;;;;;;36.80;7.30;;;9.30;99.90;;;;;;5117453;28;20395;-71
2022/01/03 06:28:48;;;;;;;33.63;7.15;;;9.30;99.90;;;;;;5117825;28;20063;-71
2022/01/03 06:31:13;;;;;;;30.25;6.28;;;9.20;99.90;;;;;;5117574;28;20472;-71
2022/01/03 06:33:40;;;;;;;33.20;6.28;;;9.30;99.90;;;;;;5117820;28;20115;-70
2022/01/03 06:36:06;;;;;;;34.45;7.20;;;9.30;99.90;;;;;;5098945;28;20035;-70
2022/01/03 06:38:32;;;;;;;22.38;5.15;;;9.20;99.90;;;;;;5117038;28;20437;-70
2022/01/03 06:40:57;;;;;;;29.55;5.90;;;9.20;99.90;;;;;;5117452;28;20044;-71
2022/01/03 06:43:23;;;;;;;22.98;5.07;;;9.20;99.90;;;;;;5117416;28;20071;-71
2022/01/03 06:45:48;;;;;;;33.85;6.05;;;9.20;99.90;;;;;;5117230;28;20065;-71
2022/01/03 06:48:15;;;;;;;30.50;6.22;;;9.20;99.90;;;;;;5115934;28;20051;-71
2022/01/03 06:50:41;;;;;;;26.05;6.20;;;9.20;99.90;;;;;;5117246;27;20654;-70
2022/01/03 06:53:06;;;;;;;23.48;6.43;;;9.20;99.90;;;;;;5115777;28;20514;-70
2022/01/03 06:55:32;;;;;;;38.78;8.15;;;9.30;99.90;;;;;;5117052;28;20032;-71
2022/01/03 06:57:57;;;;;;;29.05;8.15;;;9.30;99.90;;;;;;5117067;28;20088;-70
2022/01/03 07:00:23;;;;;;;32.00;6.28;;;9.20;99.90;;;;;;5117234;28;20043;-70
2022/01/03 07:02:48;;;;;;;32.10;6.20;;;9.20;99.90;;;;;;5117340;28;20077;-70
2022/01/03 07:05:15;;;;;;;31.42;7.22;;;9.20;99.90;;;;;;5116028;28;20535;-70
2022/01/03 07:07:41;;;;;;;33.08;5.63;;;9.20;99.90;;;;;;5115017;28;20046;-70
2022/01/03 07:10:09;;;;;;;33.88;6.45;;;9.20;99.90;;;;;;5115371;28;20040;-71
2022/01/03 07:12:35;;;;;;;29.08;6.82;;;9.10;99.90;;;;;;5115889;28;20044;-70
2022/01/03 07:20:11;;;;;;;23.65;5.30;;;9.10;99.90;;;;;;5114441;28;20055;-71
2022/01/03 07:22:40;;;;;;;30.83;6.30;;;9.20;99.90;;;;;;5116751;28;20119;-70
2022/01/03 07:25:07;;;;;;;37.95;8.13;;;9.10;99.90;;;;;;5116756;28;20051;-70
2022/01/03 07:27:33;;;;;;;34.55;6.47;;;9.10;99.90;;;;;;5116430;28;20536;-71
2022/01/03 07:29:59;;;;;;;29.98;6.85;;;9.10;99.90;;;;;;5114909;28;20071;-71
2022/01/03 07:32:24;;;;;;;43.00;7.40;;;9.20;99.90;;;;;;5116159;28;20391;-70
2022/01/03 07:34:50;;;;;;;37.90;6.60;;;9.20;99.90;;;;;;5116264;28;20043;-70
2022/01/03 07:37:15;;;;;;;38.60;6.70;;;9.20;99.90;;;;;;5114645;28;20039;-70
2022/01/03 07:39:42;;;;;;;44.00;7.20;;;9.30;99.90;;;;;;5116457;28;20043;-70
2022/01/03 07:42:08;;;;;;;39.00;6.95;;;9.20;99.90;;;;;;5116484;28;20071;-70
2022/01/03 07:44:34;;;;;;;36.53;7.03;;;9.20;99.90;;;;;;5116567;27;20117;-70
2022/01/03 07:46:59;;;;;;;32.60;6.22;;;9.20;99.90;;;;;;5115609;28;20053;-70
2022/01/03 07:49:25;;;;;;;33.60;6.22;;;9.20;99.90;;;;;;5115942;28;20035;-70
2022/01/03 07:51:51;;;;;;;37.05;6.10;;;9.20;99.90;;;;;;5116045;27;20043;-70
2022/01/03 07:54:16;;;;;;;34.80;6.85;;;9.20;99.90;;;;;;5115771;28;20055;-71
2022/01/03 07:56:42;;;;;;;34.53;6.18;;;9.20;99.90;;;;;;5115425;28;20075;-70
2022/01/03 07:59:08;;;;;;;42.80;6.32;;;9.20;99.90;;;;;;5115138;28;20038;-70
2022/01/03 08:01:33;;;;;;;31.20;7.63;;;9.20;99.90;;;;;;5115546;28;20039;-71
2022/01/03 08:03:59;;;;;;;32.05;6.32;;;9.30;99.90;;;;;;5114262;28;20050;-70
2022/01/03 08:06:24;;;;;;;30.05;6.65;;;9.20;99.90;;;;;;5115479;28;20086;-70
2022/01/03 08:08:50;;;;;;;29.77;6.75;;;9.30;99.90;;;;;;5116004;28;20078;-71
2022/01/03 08:11:16;;;;;;;34.92;7.07;;;9.30;99.90;;;;;;5115396;28;20039;-70
2022/01/03 08:13:42;;;;;;;31.85;5.90;;;9.30;99.90;;;;;;5115280;28;20079;-70
2022/01/03 08:16:08;;;;;;;31.50;5.93;;;9.30;99.90;;;;;;5115479;28;20514;-70
2022/01/03 08:18:34;;;;;;;26.50;5.55;;;9.30;99.90;;;;;;5115138;28;20046;-70
2022/01/03 08:21:00;;;;;;;28.65;5.50;;;9.40;99.90;;;;;;5113906;28;20407;-70
2022/01/03 08:23:25;;;;;;;25.20;7.18;;;9.30;99.90;;;;;;5115314;28;20426;-70
2022/01/03 08:25:52;;;;;;;32.50;6.60;;;9.30;99.90;;;;;;5114927;28;20035;-71
2022/01/03 08:28:17;;;;;;;24.45;5.40;;;9.40;99.90;;;;;;5114947;28;20407;-70
2022/01/03 08:30:43;;;;;;;27.95;6.03;;;9.40;99.90;;;;;;5115552;28;20043;-70
2022/01/03 08:33:09;;;;;;;37.53;6.35;;;9.50;99.90;;;;;;5113948;28;20489;-71
2022/01/03 08:35:34;;;;;;;34.88;6.13;;;9.40;99.90;;;;;;5113531;28;20035;-70
2022/01/03 08:38:01;;;;;;;42.10;7.43;;;9.40;99.90;;;;;;5115162;28;20035;-70
2022/01/03 08:40:27;;;;;;;27.23;5.35;;;9.50;99.90;;;;;;5115262;28;20118;-71
2022/01/03 08:42:53;;;;;;;39.90;6.10;;;9.50;99.90;;;;;;5113795;28;20122;-70
2022/01/03 08:45:19;;;;;;;40.13;6.55;;;9.60;99.90;;;;;;5114875;28;20546;-70
2022/01/03 08:47:46;;;;;;;30.20;5.97;;;9.60;99.90;;;;;;5113346;28;20410;-71
2022/01/03 08:50:12;;;;;;;33.13;5.85;;;9.60;99.90;;;;;;5113579;28;20471;-71
2022/01/03 08:52:38;;;;;;;36.00;5.28;;;9.60;99.90;;;;;;5114939;28;20036;-70
2022/01/03 08:55:04;;;;;;;33.35;5.35;;;9.60;99.90;;;;;;5114849;28;20364;-70
2022/01/03 08:57:30;;;;;;;24.88;6.47;;;9.70;99.90;;;;;;5114136;28;20119;-71
2022/01/03 08:59:56;;;;;;;38.55;6.28;;;9.70;99.90;;;;;;5113906;28;20475;-70
2022/01/03 09:02:22;;;;;;;27.15;5.35;;;9.70;99.90;;;;;;5114825;28;20480;-71
2022/01/03 09:04:47;;;;;;;20.27;4.55;;;9.80;99.90;;;;;;5113196;28;20075;-70
2022/01/03 09:07:13;;;;;;;36.05;7.43;;;9.80;99.90;;;;;;5113949;28;20389;-71
2022/01/03 09:09:39;;;;;;;24.90;6.05;;;9.90;99.90;;;;;;5096512;28;20070;-70
2022/01/03 09:12:07;;;;;;;43.10;7.05;;;9.80;99.90;;;;;;5113036;28;20446;-70
2022/01/03 09:14:33;;;;;;;31.77;5.93;;;9.80;99.90;;;;;;5113971;28;20052;-70
2022/01/03 09:16:59;;;;;;;28.55;5.38;;;9.90;99.90;;;;;;5113675;28;20559;-70
2022/01/03 09:19:26;;;;;;;21.90;5.07;;;10.00;99.90;;;;;;5112918;28;20122;-70
2022/01/03 09:22:00;;;;;;;29.83;6.25;;;9.90;99.90;;;;;;5114530;28;20040;-70
2022/01/03 09:24:42;;;;;;;27.25;5.63;;;10.00;99.90;;;;;;5114662;28;20479;-70
2022/01/03 09:29:54;;;;;;;28.23;6.38;;;9.90;99.90;;;;;;5114323;28;20043;-70
2022/01/03 09:32:20;;;;;;;30.70;6.15;;;9.90;99.90;;;;;;5114489;28;20478;-70
2022/01/03 09:34:46;;;;;;;34.70;6.78;;;9.90;99.90;;;;;;5113775;28;20042;-71
2022/01/03 09:37:12;;;;;;;27.00;4.88;;;9.90;99.90;;;;;;5100975;28;20039;-71
2022/01/03 09:39:38;;;;;;;29.80;6.15;;;10.00;99.90;;;;;;5096044;28;20040;-71
2022/01/03 09:42:07;;;;;;;24.00;5.35;;;10.10;99.90;;;;;;5093674;28;20035;-71
2022/01/03 09:44:33;;;;;;;20.45;5.13;;;10.00;99.90;;;;;;5092923;28;20047;-71
2022/01/03 09:47:02;;;;;;;31.73;6.07;;;10.10;99.90;;;;;;5101030;28;20086;-71
2022/01/03 09:49:34;;;;;;;29.25;5.97;;;10.10;99.90;;;;;;5103506;28;20116;-71
2022/01/03 09:52:01;;;;;;;21.20;4.53;;;10.10;99.90;;;;;;5101118;28;20039;-70
2022/01/03 09:54:27;;;;;;;25.15;6.70;;;10.10;99.90;;;;;;5113162;28;20105;-71
2022/01/03 09:56:56;;;;;;;29.15;5.57;;;10.10;99.90;;;;;;5113500;28;20043;-70
2022/01/03 09:59:22;;;;;;;27.27;5.78;;;10.20;99.90;;;;;;5103859;28;20028;-70
2022/01/03 10:01:48;;;;;;;30.45;5.47;;;10.20;99.90;;;;;;5102157;28;20036;-70
2022/01/03 10:04:14;;;;;;;21.52;4.35;;;10.20;99.90;;;;;;5075981;28;20354;-70
2022/01/03 10:06:41;;;;;;;25.83;4.53;;;10.30;99.90;;;;;;5091579;28;20064;-70
2022/01/03 10:09:06;;;;;;;24.17;5.32;;;10.20;99.90;;;;;;5092286;28;20098;-70
2022/01/03 10:11:32;;;;;;;24.67;5.45;;;10.30;99.90;;;;;;5092954;28;20491;-71
2022/01/03 10:14:01;;;;;;;25.90;6.45;;;10.30;99.90;;;;;;5106087;28;20032;-70
2022/01/03 10:16:28;;;;;;;29.35;6.53;;;10.30;99.90;;;;;;5111865;28;20040;-71
2022/01/03 10:18:54;;;;;;;26.08;6.22;;;10.30;99.90;;;;;;5112425;28;20035;-70
2022/01/03 10:21:38;;;;;;;16.35;4.65;;;10.40;99.90;;;;;;5113562;28;20441;-70
2022/01/03 10:24:05;;;;;;;28.42;5.95;;;10.40;99.90;;;;;;5095422;28;20054;-70
2022/01/03 10:26:31;;;;;;;25.00;5.53;;;10.40;99.90;;;;;;5113301;28;20043;-70
2022/01/03 10:29:24;;;;;;;23.52;5.75;;;10.40;99.90;;;;;;5113151;28;20374;-70
2022/01/03 10:31:52;;;;;;;22.70;5.75;;;10.40;99.90;;;;;;5113511;28;20067;-70
2022/01/03 10:34:21;;;;;;;30.02;5.45;;;10.40;99.90;;;;;;5113052;28;20100;-70
2022/01/03 10:36:48;;;;;;;32.47;7.47;;;10.40;99.90;;;;;;5113394;28;20043;-71
2022/01/03 10:39:23;;;;;;;26.33;5.25;;;10.40;99.90;;;;;;5113922;28;20120;-70
2022/01/03 10:42:12;;;;;;;22.60;4.88;;;10.40;99.90;;;;;;5113891;28;20040;-71
2022/01/03 10:44:42;;;;;;;31.05;4.88;;;10.40;99.90;;;;;;5113636;28;20118;-70
2022/01/03 10:47:15;;;;;;;22.73;5.18;;;10.30;99.90;;;;;;5112440;28;20040;-70
2022/01/03 10:49:42;;;;;;;26.37;4.80;;;10.40;99.90;;;;;;5092950;28;20389;-70
2022/01/03 10:52:22;;;;;;;24.58;4.50;;;10.60;99.90;;;;;;5091907;28;20440;-70
2022/01/03 10:55:07;;;;;;;28.83;5.85;;;10.50;99.90;;;;;;5092724;28;20040;-70
2022/01/03 10:57:58;;;;;;;26.17;4.38;;;10.40;99.90;;;;;;5095132;28;20495;-71
2022/01/03 11:00:29;;;;;;;23.80;4.53;;;10.50;99.90;;;;;;5097048;28;20048;-70
2022/01/03 11:03:29;;;;;;;17.42;4.65;;;10.50;99.90;;;;;;5096528;28;20416;-70
2022/01/03 11:06:02;;;;;;;22.13;5.15;;;10.50;99.90;;;;;;5096373;28;20040;-70
2022/01/03 11:11:15;;;;;;;23.65;5.63;;;10.50;99.90;;;;;;5095692;28;20040;-71
2022/01/03 11:13:49;;;;;;;27.58;5.47;;;10.60;99.90;;;;;;5095943;28;20476;-70
2022/01/03 11:16:15;;;;;;;32.65;6.72;;;10.60;99.90;;;;;;5103717;28;20027;-70
2022/01/03 11:18:48;;;;;;;23.08;5.72;;;10.50;99.90;;;;;;5102364;28;20039;-70
2022/01/03 11:21:23;;;;;;;24.77;6.30;;;10.60;99.90;;;;;;5105702;28;20396;-70
2022/01/03 11:24:11;;;;;;;31.50;6.15;;;10.60;99.90;;;;;;5107938;28;20040;-70
2022/01/03 11:26:48;;;;;;;28.50;5.05;;;10.60;99.90;;;;;;5115056;28;20054;-70
2022/01/03 11:29:15;;;;;;;24.83;6.00;;;10.70;99.90;;;;;;5116975;28;20044;-70
2022/01/03 11:31:41;;;;;;;35.33;5.72;;;10.70;99.90;;;;;;5115260;28;20082;-70
2022/01/03 11:34:08;;;;;;;28.40;6.45;;;10.60;99.90;;;;;;5116573;28;20563;-70
2022/01/03 11:36:37;;;;;;;20.20;5.72;;;10.60;99.90;;;;;;5115768;28;20356;-71
2022/01/03 11:39:09;;;;;;;25.05;5.10;;;10.70;99.90;;;;;;5114854;28;20047;-70
2022/01/03 11:41:37;;;;;;;22.70;4.82;;;10.60;99.90;;;;;;5116459;28;20039;-69
2022/01/03 11:44:03;;;;;;;20.10;7.03;;;10.60;99.90;;;;;;5116389;28;20088;-69
2022/01/03 11:46:29;;;;;;;25.25;5.22;;;10.70;99.90;;;;;;5116007;28;20032;-70
2022/01/03 11:48:57;;;;;;;23.40;5.22;;;10.60;99.90;;;;;;5115914;28;20067;-70
2022/01/03 11:51:23;;;;;;;25.95;7.22;;;10.60;99.90;;;;;;5115706;28;20451;-70
2022/01/03 11:53:50;;;;;;;20.40;4.80;;;10.70;99.90;;;;;;5116143;28;20059;-70
2022/01/03 11:56:25;;;;;;;23.70;4.45;;;10.70;99.90;;;;;;5114457;28;20440;-70
2022/01/03 11:59:04;;;;;;;27.95;4.43;;;10.70;99.90;;;;;;5114382;28;20039;-70
2022/01/03 12:04:27;;;;;;;21.88;4.00;;;10.70;99.90;;;;;;5115600;28;20052;-69
2022/01/03 12:07:13;;;;;;;32.63;5.18;;;10.70;99.90;;;;;;5114987;28;20473;-69
2022/01/03 12:09:42;;;;;;;22.58;5.13;;;10.80;99.90;;;;;;5101374;28;20094;-70
2022/01/03 12:12:09;;;;;;;30.33;5.72;;;10.80;99.90;;;;;;5095192;28;20043;-69
2022/01/03 12:14:46;;;;;;;28.65;6.93;;;10.80;99.90;;;;;;5094903;28;20115;-69
2022/01/03 12:17:15;;;;;;;25.92;4.40;;;10.80;99.90;;;;;;5094771;28;20032;-69
2022/01/03 12:19:43;;;;;;;23.45;5.13;;;10.80;99.90;;;;;;5094816;28;20540;-69
2022/01/03 12:22:18;;;;;;;26.67;4.65;;;10.80;99.90;;;;;;5094584;28;20453;-69
2022/01/03 12:24:52;;;;;;;22.30;4.28;;;10.80;99.90;;;;;;5094930;28;20044;-70
2022/01/03 12:27:29;;;;;;;33.33;5.50;;;10.80;99.90;;;;;;5076354;28;20531;-69
2022/01/03 12:29:57;;;;;;;22.30;4.28;;;10.80;99.90;;;;;;5094769;28;20043;-69
2022/01/03 12:32:24;;;;;;;19.05;5.30;;;10.90;99.90;;;;;;5094437;28;20443;-69
2022/01/03 12:35:15;;;;;;;18.95;4.55;;;10.90;99.90;;;;;;5094652;28;20094;-69
2022/01/03 12:38:10;;;;;;;20.95;5.10;;;10.90;99.90;;;;;;5094092;28;20044;-68
2022/01/03 12:40:36;;;;;;;21.45;4.93;;;10.80;99.90;;;;;;5094131;28;20032;-68
2022/01/03 12:43:12;;;;;;;22.17;5.18;;;10.90;99.90;;;;;;5111625;28;20243;-70
2022/01/03 12:45:39;;;;;;;24.63;5.35;;;10.90;99.90;;;;;;5093368;28;20032;-69
2022/01/03 12:48:10;;;;;;;23.88;5.20;;;11.10;99.90;;;;;;5093910;28;20052;-70
2022/01/03 12:50:51;;;;;;;23.02;4.57;;;11.10;99.90;;;;;;5091237;28;20492;-70
2022/01/03 12:53:23;;;;;;;23.63;5.20;;;11.00;99.90;;;;;;5073870;28;20123;-70
2022/01/03 12:55:52;;;;;;;21.95;4.90;;;11.00;99.90;;;;;;5092109;28;20068;-70
2022/01/03 12:58:20;;;;;;;21.08;4.18;;;11.00;99.90;;;;;;5092093;28;20073;-70
2022/01/03 13:00:58;;;;;;;23.98;5.18;;;11.00;99.90;;;;;;5092082;28;20039;-70
2022/01/03 13:03:27;;;;;;;27.83;5.15;;;10.80;99.90;;;;;;5092819;28;20048;-70
2022/01/03 13:06:15;;;;;;;19.95;5.10;;;10.90;99.90;;;;;;5093598;28;20385;-70
2022/01/03 13:09:03;;;;;;;23.48;5.65;;;10.90;99.90;;;;;;5092983;28;20047;-70
2022/01/03 13:11:32;;;;;;;26.13;6.05;;;11.10;99.90;;;;;;5092697;28;20040;-70